createdAt,value
2019-05-18T00:00:08.678Z,14.39
2019-05-18T00:02:37.160Z,14.40
2019-05-18T00:05:08.268Z,14.40
2019-05-18T00:07:36.749Z,14.37
2019-05-18T00:10:06.464Z,14.37
2019-05-18T00:12:35.009Z,14.42
2019-05-18T00:15:04.749Z,14.30
2019-05-18T00:17:33.220Z,14.35
2019-05-18T00:20:01.731Z,14.32
2019-05-18T00:22:30.194Z,14.29
2019-05-18T00:24:58.785Z,14.25
2019-05-18T00:27:27.564Z,14.32
2019-05-18T00:29:56.054Z,14.25
2019-05-18T00:32:24.637Z,14.21
2019-05-18T00:34:53.119Z,14.12
2019-05-18T00:37:21.660Z,14.18
2019-05-18T00:39:50.184Z,14.14
2019-05-18T00:42:18.780Z,14.00
2019-05-18T00:44:47.267Z,14.05
2019-05-18T00:47:15.789Z,13.96
2019-05-18T00:49:44.351Z,13.96
2019-05-18T00:52:12.874Z,13.90
2019-05-18T00:54:41.399Z,13.88
2019-05-18T00:57:09.931Z,13.92
2019-05-18T00:59:38.564Z,13.83
2019-05-18T01:02:07.075Z,13.81
2019-05-18T01:04:35.555Z,13.73
2019-05-18T01:07:04.212Z,13.66
2019-05-18T01:09:32.731Z,13.73
2019-05-18T01:12:01.239Z,13.70
2019-05-18T01:14:29.741Z,13.71
2019-05-18T01:16:58.329Z,13.60
2019-05-18T01:19:26.818Z,13.63
2019-05-18T01:21:55.368Z,13.58
2019-05-18T01:24:23.866Z,13.49
2019-05-18T01:26:52.454Z,13.48
2019-05-18T01:29:21.109Z,13.50
2019-05-18T01:31:49.642Z,13.47
2019-05-18T01:34:18.144Z,13.43
2019-05-18T01:36:46.659Z,13.44
2019-05-18T01:39:15.148Z,13.43
2019-05-18T01:41:43.667Z,13.45
2019-05-18T01:44:12.172Z,13.33
2019-05-18T01:46:40.677Z,13.36
2019-05-18T01:49:09.145Z,13.30
2019-05-18T01:51:37.690Z,13.31
2019-05-18T01:54:06.172Z,13.25
2019-05-18T01:56:34.791Z,13.21
2019-05-18T01:59:03.269Z,13.25
2019-05-18T02:01:31.763Z,13.18
2019-05-18T02:04:00.275Z,13.23
2019-05-18T02:06:28.820Z,13.13
2019-05-18T02:08:57.351Z,13.13
2019-05-18T02:11:25.910Z,13.17
2019-05-18T02:13:54.569Z,13.06
2019-05-18T02:16:23.159Z,13.03
2019-05-18T02:18:51.810Z,12.98
2019-05-18T02:21:20.288Z,12.95
2019-05-18T02:23:48.829Z,12.95
2019-05-18T02:26:17.409Z,12.84
2019-05-18T02:28:45.984Z,12.84
2019-05-18T02:31:14.478Z,12.79
2019-05-18T02:33:43.043Z,12.83
2019-05-18T02:36:11.563Z,12.85
2019-05-18T02:38:40.278Z,12.82
2019-05-18T02:41:08.793Z,12.75
2019-05-18T02:43:37.345Z,12.78
2019-05-18T02:46:05.941Z,12.77
2019-05-18T02:48:48.840Z,12.72
2019-05-18T02:51:04.692Z,12.71
2019-05-18T02:53:33.207Z,12.78
2019-05-18T02:56:01.712Z,12.70
2019-05-18T02:58:30.243Z,12.72
2019-05-18T03:00:58.733Z,12.71
2019-05-18T03:03:27.278Z,12.72
2019-05-18T03:05:56.141Z,12.69
2019-05-18T03:08:24.787Z,12.67
2019-05-18T03:10:53.355Z,12.65
2019-05-18T03:13:21.942Z,12.66
2019-05-18T03:15:50.479Z,12.61
2019-05-18T03:18:18.998Z,12.52
2019-05-18T03:20:47.506Z,12.56
2019-05-18T03:23:16.062Z,12.51
2019-05-18T03:25:44.574Z,12.44
2019-05-18T03:28:13.638Z,12.49
2019-05-18T03:30:42.151Z,12.42
2019-05-18T03:33:10.672Z,12.38
2019-05-18T03:35:39.193Z,12.38
2019-05-18T03:38:07.770Z,12.42
2019-05-18T03:40:36.275Z,12.42
2019-05-18T03:43:04.877Z,12.32
2019-05-18T03:45:33.338Z,12.37
2019-05-18T03:48:01.927Z,12.37
2019-05-18T03:50:30.384Z,12.39
2019-05-18T03:52:58.900Z,12.40
2019-05-18T03:55:27.398Z,12.41
2019-05-18T03:57:56.021Z,12.43
2019-05-18T04:00:24.586Z,12.41
2019-05-18T04:02:53.111Z,12.40
2019-05-18T04:05:21.615Z,12.39
2019-05-18T04:07:50.164Z,12.40
2019-05-18T04:10:27.402Z,12.38
2019-05-18T04:12:56.092Z,12.39
2019-05-18T04:15:24.566Z,12.36
2019-05-18T04:17:53.068Z,12.37
2019-05-18T04:20:21.573Z,12.42
2019-05-18T04:22:50.104Z,12.44
2019-05-18T04:25:18.792Z,12.50
2019-05-18T04:27:47.284Z,12.52
2019-05-18T04:30:17.497Z,12.54
2019-05-18T04:32:46.034Z,12.50
2019-05-18T04:35:14.916Z,12.56
2019-05-18T04:37:43.455Z,12.64
2019-05-18T04:40:12.578Z,12.69
2019-05-18T04:42:41.089Z,12.71
2019-05-18T04:45:10.164Z,12.75
2019-05-18T04:47:38.653Z,12.80
2019-05-18T04:50:07.950Z,12.79
2019-05-18T04:52:36.445Z,12.87
2019-05-18T04:55:06.091Z,12.90
2019-05-18T04:57:34.683Z,12.93
2019-05-18T05:00:04.156Z,12.97
2019-05-18T05:02:32.628Z,13.03
2019-05-18T05:05:01.159Z,13.16
2019-05-18T05:07:29.697Z,13.16
2019-05-18T05:09:58.256Z,13.20
2019-05-18T05:12:26.754Z,13.26
2019-05-18T05:14:55.264Z,13.31
2019-05-18T05:17:23.760Z,13.49
2019-05-18T05:19:52.281Z,13.51
2019-05-18T05:22:20.790Z,13.55
2019-05-18T05:24:49.297Z,13.61
2019-05-18T05:27:17.832Z,13.70
2019-05-18T05:29:46.393Z,13.84
2019-05-18T05:32:14.897Z,13.97
2019-05-18T05:34:43.425Z,14.01
2019-05-18T05:37:11.917Z,13.98
2019-05-18T05:39:40.447Z,14.05
2019-05-18T05:42:08.956Z,14.19
2019-05-18T05:44:37.534Z,14.33
2019-05-18T05:47:06.017Z,14.44
2019-05-18T05:49:34.562Z,14.59
2019-05-18T05:52:03.079Z,14.74
2019-05-18T05:54:31.614Z,14.81
2019-05-18T05:57:00.167Z,14.88
2019-05-18T05:59:28.630Z,14.94
2019-05-18T06:01:57.153Z,15.23
2019-05-18T06:04:32.970Z,15.31
2019-05-18T06:07:01.397Z,15.34
2019-05-18T06:09:30.032Z,15.64
2019-05-18T06:11:58.532Z,15.67
2019-05-18T06:14:27.142Z,15.73
2019-05-18T06:16:55.613Z,16.20
2019-05-18T06:19:24.115Z,16.61
2019-05-18T06:21:52.647Z,16.74
2019-05-18T06:24:21.154Z,16.97
2019-05-18T06:26:49.683Z,17.43
2019-05-18T06:29:18.187Z,17.39
2019-05-18T06:31:46.750Z,17.47
2019-05-18T06:34:15.236Z,17.70
2019-05-18T06:36:43.789Z,17.88
2019-05-18T06:39:12.432Z,18.42
2019-05-18T06:41:40.881Z,18.86
2019-05-18T06:44:09.455Z,18.81
2019-05-18T06:46:37.963Z,19.31
2019-05-18T06:49:06.547Z,19.66
2019-05-18T06:51:35.098Z,20.03
2019-05-18T06:54:03.647Z,20.46
2019-05-18T06:56:33.286Z,20.48
2019-05-18T06:59:02.255Z,19.97
2019-05-18T07:01:30.806Z,20.20
2019-05-18T07:03:59.289Z,20.38
2019-05-18T07:06:29.243Z,20.82
2019-05-18T07:08:57.724Z,20.31
2019-05-18T07:11:26.277Z,20.56
2019-05-18T07:13:54.755Z,21.15
2019-05-18T07:16:23.295Z,21.58
2019-05-18T07:18:51.806Z,21.44
2019-05-18T07:21:22.583Z,21.56
2019-05-18T07:23:50.548Z,21.73
2019-05-18T07:26:19.127Z,22.14
2019-05-18T07:28:47.718Z,22.33
2019-05-18T07:31:16.364Z,22.67
2019-05-18T07:33:44.852Z,22.80
2019-05-18T07:36:13.362Z,22.54
2019-05-18T07:38:42.122Z,22.37
2019-05-18T07:41:10.637Z,22.89
2019-05-18T07:43:39.140Z,23.40
2019-05-18T07:46:08.841Z,22.49
2019-05-18T07:48:37.498Z,23.26
2019-05-18T07:51:08.762Z,23.57
2019-05-18T07:53:37.267Z,23.45
2019-05-18T07:56:06.025Z,22.80
2019-05-18T07:58:34.826Z,22.99
2019-05-18T08:01:03.575Z,23.27
2019-05-18T08:03:32.105Z,24.22
2019-05-18T08:06:00.710Z,24.24
2019-05-18T08:08:29.226Z,24.06
2019-05-18T08:10:57.753Z,24.09
2019-05-18T08:13:26.244Z,24.87
2019-05-18T08:15:54.744Z,24.23
2019-05-18T08:18:23.240Z,24.68
2019-05-18T08:20:51.801Z,24.70
2019-05-18T08:23:20.342Z,25.08
2019-05-18T08:25:48.879Z,25.03
2019-05-18T08:28:17.438Z,25.58
2019-05-18T08:30:45.933Z,25.43
2019-05-18T08:33:14.541Z,25.89
2019-05-18T08:35:43.091Z,25.70
2019-05-18T08:38:11.628Z,25.29
2019-05-18T08:40:40.098Z,25.55
2019-05-18T08:43:08.615Z,25.81
2019-05-18T08:45:37.099Z,25.41
2019-05-18T08:48:05.603Z,26.05
2019-05-18T08:50:34.186Z,26.16
2019-05-18T08:53:02.697Z,25.39
2019-05-18T08:55:31.204Z,26.75
2019-05-18T08:57:59.703Z,26.54
2019-05-18T09:00:28.193Z,27.08
2019-05-18T09:02:57.051Z,27.30
2019-05-18T09:05:25.557Z,26.88
2019-05-18T09:07:54.083Z,26.98
2019-05-18T09:10:22.603Z,27.30
2019-05-18T09:12:51.116Z,27.45
2019-05-18T09:15:20.024Z,26.99
2019-05-18T09:17:48.594Z,27.03
2019-05-18T09:20:17.932Z,28.14
2019-05-18T09:22:46.446Z,27.53
2019-05-18T09:25:15.491Z,27.42
2019-05-18T09:27:44.093Z,27.63
2019-05-18T09:30:13.676Z,27.35
2019-05-18T09:32:42.234Z,27.65
2019-05-18T09:35:11.359Z,28.82
2019-05-18T09:37:39.969Z,28.10
2019-05-18T09:40:08.899Z,28.52
2019-05-18T09:42:37.446Z,28.94
2019-05-18T09:45:08.473Z,28.42
2019-05-18T09:47:37.046Z,28.82
2019-05-18T09:50:09.327Z,28.64
2019-05-18T09:52:46.117Z,28.91
2019-05-18T09:55:08.685Z,28.51
2019-05-18T09:57:37.163Z,28.97
2019-05-18T10:00:08.243Z,28.85
2019-05-18T10:02:37.173Z,29.27
2019-05-18T10:05:06.322Z,27.77
2019-05-18T10:07:34.983Z,29.67
2019-05-18T10:10:10.988Z,28.82
2019-05-18T10:12:39.695Z,29.57
2019-05-18T10:15:09.701Z,30.19
2019-05-18T10:17:38.227Z,30.10
2019-05-18T10:20:10.567Z,29.37
2019-05-18T10:22:53.461Z,29.92
2019-05-18T10:25:10.003Z,29.73
2019-05-18T10:27:38.641Z,29.96
2019-05-18T10:30:08.229Z,30.16
2019-05-18T10:32:36.818Z,30.09
2019-05-18T10:35:07.725Z,29.27
2019-05-18T10:37:36.264Z,28.20
2019-05-18T10:40:07.880Z,28.26
2019-05-18T10:42:36.470Z,26.91
2019-05-18T10:45:09.044Z,26.47
2019-05-18T10:47:37.540Z,26.19
2019-05-18T10:50:09.106Z,25.21
2019-05-18T10:52:37.620Z,24.87
2019-05-18T10:55:08.061Z,25.59
2019-05-18T10:57:36.574Z,25.30
2019-05-18T11:00:07.527Z,24.84
2019-05-18T11:02:36.197Z,24.65
2019-05-18T11:05:10.051Z,24.33
2019-05-18T11:07:38.606Z,24.24
2019-05-18T11:10:09.482Z,24.62
2019-05-18T11:12:38.076Z,24.30
2019-05-18T11:15:08.302Z,24.25
2019-05-18T11:17:36.804Z,24.22
2019-05-18T11:20:10.261Z,24.30
2019-05-18T11:22:38.955Z,24.47
2019-05-18T11:25:08.472Z,24.23
2019-05-18T11:27:37.022Z,24.24
2019-05-18T11:30:09.631Z,24.10
2019-05-18T11:32:38.510Z,23.96
2019-05-18T11:35:08.260Z,24.02
2019-05-18T11:37:36.856Z,23.98
2019-05-18T11:40:09.357Z,24.20
2019-05-18T11:42:38.120Z,24.09
2019-05-18T11:45:08.918Z,24.06
2019-05-18T11:47:37.637Z,23.86
2019-05-18T11:50:09.003Z,23.66
2019-05-18T11:52:38.538Z,23.69
2019-05-18T11:55:08.720Z,23.59
2019-05-18T11:57:37.328Z,23.72
2019-05-18T12:00:11.716Z,23.80
2019-05-18T12:02:40.208Z,23.68
2019-05-18T12:05:11.986Z,23.44
2019-05-18T12:07:40.580Z,23.37
2019-05-18T12:10:09.872Z,23.43
2019-05-18T12:12:38.743Z,23.52
2019-05-18T12:15:09.743Z,23.45
2019-05-18T12:17:41.083Z,23.51
2019-05-18T12:20:10.902Z,23.37
2019-05-18T12:22:39.401Z,23.44
2019-05-18T12:25:09.362Z,23.42
2019-05-18T12:27:37.985Z,23.38
2019-05-18T12:30:11.045Z,23.46
2019-05-18T12:32:39.713Z,23.47
2019-05-18T12:35:10.547Z,23.43
2019-05-18T12:37:39.135Z,23.59
2019-05-18T12:40:09.239Z,23.52
2019-05-18T12:42:37.845Z,23.48
2019-05-18T12:45:08.034Z,23.59
2019-05-18T12:47:36.689Z,23.33
2019-05-18T12:50:07.083Z,23.46
2019-05-18T12:52:35.534Z,23.34
2019-05-18T12:55:06.082Z,23.44
2019-05-18T12:57:35.098Z,23.49
2019-05-18T13:00:05.433Z,23.57
2019-05-18T13:02:34.133Z,23.60
2019-05-18T13:05:02.664Z,23.60
2019-05-18T13:07:31.928Z,23.67
2019-05-18T13:10:00.543Z,23.68
2019-05-18T13:12:29.121Z,23.58
2019-05-18T13:14:57.637Z,23.54
2019-05-18T13:17:26.139Z,23.58
2019-05-18T13:19:54.633Z,23.61
2019-05-18T13:22:23.217Z,23.57
2019-05-18T13:24:52.387Z,23.61
2019-05-18T13:27:21.035Z,23.60
2019-05-18T13:29:49.585Z,23.71
2019-05-18T13:32:18.110Z,23.68
2019-05-18T13:34:46.557Z,23.71
2019-05-18T13:37:15.071Z,23.72
2019-05-18T13:39:43.588Z,23.82
2019-05-18T13:42:12.112Z,23.86
2019-05-18T13:44:40.687Z,23.88
2019-05-18T13:47:09.171Z,23.86
2019-05-18T13:49:37.745Z,23.85
2019-05-18T13:52:06.422Z,23.93
2019-05-18T13:54:34.963Z,23.85
2019-05-18T13:57:03.608Z,23.94
2019-05-18T13:59:32.190Z,23.83
2019-05-18T14:02:00.710Z,23.84
2019-05-18T14:04:29.221Z,23.85
2019-05-18T14:06:57.767Z,23.98
2019-05-18T14:09:28.064Z,23.93
2019-05-18T14:11:56.569Z,23.93
2019-05-18T14:14:25.108Z,23.96
2019-05-18T14:16:53.638Z,24.00
2019-05-18T14:19:22.164Z,24.02
2019-05-18T14:21:50.764Z,23.97
2019-05-18T14:24:19.260Z,23.88
2019-05-18T14:26:47.796Z,23.89
2019-05-18T14:29:16.357Z,23.95
2019-05-18T14:31:47.749Z,23.92
2019-05-18T14:34:16.258Z,23.86
2019-05-18T14:36:44.866Z,23.82
2019-05-18T14:39:13.356Z,23.81
2019-05-18T14:41:42.552Z,23.81
2019-05-18T14:44:12.945Z,23.81
2019-05-18T14:46:41.462Z,23.73
2019-05-18T14:49:09.989Z,23.76
2019-05-18T14:51:38.527Z,23.79
2019-05-18T14:54:06.982Z,23.79
2019-05-18T14:56:35.549Z,23.76
2019-05-18T14:59:04.053Z,23.66
2019-05-18T15:01:32.594Z,23.72
2019-05-18T15:04:01.091Z,23.75
2019-05-18T15:06:29.765Z,23.76
2019-05-18T15:08:58.328Z,23.75
2019-05-18T15:11:26.891Z,23.70
2019-05-18T15:13:55.494Z,23.73
2019-05-18T15:16:24.010Z,23.82
2019-05-18T15:18:52.538Z,23.84
2019-05-18T15:21:21.097Z,23.94
2019-05-18T15:23:49.611Z,23.76
2019-05-18T15:26:18.111Z,23.74
2019-05-18T15:28:46.701Z,23.70
2019-05-18T15:31:15.334Z,23.71
2019-05-18T15:33:43.862Z,23.70
2019-05-18T15:36:12.451Z,23.68
2019-05-18T15:38:40.993Z,23.70
2019-05-18T15:41:09.562Z,23.77
2019-05-18T15:43:38.133Z,23.82
2019-05-18T15:46:07.257Z,23.71
2019-05-18T15:48:35.879Z,23.81
2019-05-18T15:51:04.438Z,23.80
2019-05-18T15:53:32.960Z,23.70
2019-05-18T15:56:05.763Z,23.80
2019-05-18T15:58:31.777Z,23.66
2019-05-18T16:01:00.283Z,23.63
2019-05-18T16:03:28.832Z,23.61
2019-05-18T16:05:57.419Z,23.61
2019-05-18T16:08:25.886Z,23.68
2019-05-18T16:10:57.131Z,23.76
2019-05-18T16:13:24.727Z,23.65
2019-05-18T16:15:53.290Z,23.69
2019-05-18T16:18:21.870Z,23.82
2019-05-18T16:20:50.321Z,23.66
2019-05-18T16:23:18.893Z,23.76
2019-05-18T16:25:47.362Z,23.61
2019-05-18T16:28:15.929Z,23.58
2019-05-18T16:30:44.511Z,23.54
2019-05-18T16:33:13.067Z,23.52
2019-05-18T16:35:41.561Z,23.51
2019-05-18T16:38:10.131Z,23.53
2019-05-18T16:40:38.697Z,23.58
2019-05-18T16:43:07.170Z,23.47
2019-05-18T16:45:35.831Z,23.45
2019-05-18T16:48:04.432Z,23.47
2019-05-18T16:50:33.191Z,23.47
2019-05-18T16:53:01.963Z,23.46
2019-05-18T16:55:30.876Z,23.45
2019-05-18T16:57:59.503Z,23.44
2019-05-18T17:00:28.068Z,23.40
2019-05-18T17:02:56.583Z,23.38
2019-05-18T17:05:25.138Z,23.33
2019-05-18T17:07:53.641Z,23.35
2019-05-18T17:10:22.430Z,23.34
2019-05-18T17:12:51.031Z,23.31
2019-05-18T17:15:20.391Z,23.30
2019-05-18T17:17:49.025Z,23.30
2019-05-18T17:20:18.179Z,23.27
2019-05-18T17:22:46.737Z,23.24
2019-05-18T17:25:15.793Z,23.22
2019-05-18T17:27:44.319Z,23.18
2019-05-18T17:30:13.241Z,23.20
2019-05-18T17:32:41.815Z,23.18
2019-05-18T17:35:10.943Z,23.13
2019-05-18T17:37:39.493Z,23.28
2019-05-18T17:40:08.532Z,23.13
2019-05-18T17:42:37.127Z,23.06
2019-05-18T17:45:08.190Z,23.03
2019-05-18T17:47:36.861Z,23.04
2019-05-18T17:50:07.300Z,22.99
2019-05-18T17:52:35.834Z,22.95
2019-05-18T17:55:05.823Z,22.89
2019-05-18T17:57:34.316Z,23.04
2019-05-18T18:00:03.000Z,22.88
2019-05-18T18:02:31.488Z,22.83
2019-05-18T18:04:59.996Z,22.77
2019-05-18T18:07:28.475Z,22.74
2019-05-18T18:09:56.951Z,22.73
2019-05-18T18:12:25.427Z,22.69
2019-05-18T18:14:54.137Z,22.64
2019-05-18T18:17:22.605Z,22.62
2019-05-18T18:19:51.122Z,22.57
2019-05-18T18:22:19.619Z,22.50
2019-05-18T18:24:48.128Z,22.48
2019-05-18T18:27:24.854Z,22.45
2019-05-18T18:29:46.903Z,22.41
2019-05-18T18:32:15.404Z,22.31
2019-05-18T18:34:44.051Z,22.24
2019-05-18T18:37:12.623Z,22.22
2019-05-18T18:39:41.159Z,22.10
2019-05-18T18:42:09.613Z,22.04
2019-05-18T18:44:38.156Z,22.03
2019-05-18T18:47:06.683Z,22.00
2019-05-18T18:49:35.368Z,21.93
2019-05-18T18:52:03.944Z,21.88
2019-05-18T18:54:32.539Z,21.76
2019-05-18T18:57:01.287Z,21.76
2019-05-18T18:59:29.769Z,21.67
2019-05-18T19:01:58.324Z,21.58
2019-05-18T19:04:26.804Z,21.53
2019-05-18T19:06:55.302Z,21.48
2019-05-18T19:09:23.856Z,21.40
2019-05-18T19:11:52.369Z,21.33
2019-05-18T19:14:21.010Z,21.45
2019-05-18T19:16:49.480Z,21.20
2019-05-18T19:19:17.990Z,21.07
2019-05-18T19:21:46.475Z,21.03
2019-05-18T19:24:15.020Z,20.97
2019-05-18T19:26:43.566Z,20.95
2019-05-18T19:29:12.097Z,20.71
2019-05-18T19:31:40.666Z,20.60
2019-05-18T19:34:09.125Z,20.51
2019-05-18T19:36:37.624Z,20.45
2019-05-18T19:39:06.869Z,20.49
2019-05-18T19:41:35.391Z,20.39
2019-05-18T19:44:03.886Z,20.22
2019-05-18T19:46:32.393Z,20.20
2019-05-18T19:49:00.872Z,20.12
2019-05-18T19:51:29.442Z,20.14
2019-05-18T19:53:57.991Z,20.00
2019-05-18T19:56:26.863Z,19.72
2019-05-18T19:58:55.342Z,19.74
2019-05-18T20:01:23.845Z,19.71
2019-05-18T20:03:52.320Z,19.85
2019-05-18T20:06:20.829Z,19.79
2019-05-18T20:08:52.376Z,19.67
2019-05-18T20:11:22.519Z,19.61
2019-05-18T20:13:55.472Z,19.58
2019-05-18T20:16:23.975Z,19.58
2019-05-18T20:18:52.509Z,19.46
2019-05-18T20:21:21.249Z,19.41
2019-05-18T20:23:49.769Z,19.36
2019-05-18T20:26:18.246Z,19.33
2019-05-18T20:28:46.719Z,19.29
2019-05-18T20:31:15.231Z,19.30
2019-05-18T20:33:43.741Z,19.26
2019-05-18T20:36:12.215Z,19.19
2019-05-18T20:38:40.729Z,19.29
2019-05-18T20:41:09.206Z,19.11
2019-05-18T20:43:37.906Z,19.08
2019-05-18T20:46:06.448Z,18.99
2019-05-18T20:48:34.970Z,19.07
2019-05-18T20:51:03.441Z,18.93
2019-05-18T20:53:32.004Z,18.96
2019-05-18T20:56:00.496Z,18.87
2019-05-18T20:58:39.339Z,18.81
2019-05-18T21:00:59.270Z,18.78
2019-05-18T21:03:27.781Z,18.68
2019-05-18T21:05:56.280Z,18.60
2019-05-18T21:08:24.809Z,18.57
2019-05-18T21:10:53.292Z,18.55
2019-05-18T21:13:21.790Z,18.52
2019-05-18T21:15:50.259Z,18.39
2019-05-18T21:18:18.771Z,18.33
2019-05-18T21:20:47.250Z,18.30
2019-05-18T21:23:15.754Z,18.37
2019-05-18T21:25:44.240Z,18.26
2019-05-18T21:28:12.731Z,18.23
2019-05-18T21:30:41.195Z,18.16
2019-05-18T21:33:09.724Z,18.15
2019-05-18T21:35:38.276Z,18.07
2019-05-18T21:38:06.791Z,18.03
2019-05-18T21:40:35.245Z,18.02
2019-05-18T21:43:03.761Z,17.95
2019-05-18T21:45:32.754Z,17.93
2019-05-18T21:48:01.332Z,17.83
2019-05-18T21:50:29.817Z,17.93
2019-05-18T21:52:58.325Z,17.85
2019-05-18T21:55:26.813Z,17.86
2019-05-18T21:57:55.302Z,17.80
2019-05-18T22:00:24.497Z,17.72
2019-05-18T22:02:53.081Z,17.67
2019-05-18T22:05:21.558Z,17.55
2019-05-18T22:07:50.065Z,17.44
2019-05-18T22:10:25.825Z,17.52
2019-05-18T22:12:48.981Z,17.51
2019-05-18T22:15:17.706Z,17.47
2019-05-18T22:18:04.271Z,17.43
2019-05-18T22:20:34.522Z,17.51
2019-05-18T22:23:03.546Z,17.40
2019-05-18T22:25:32.800Z,17.39
2019-05-18T22:28:01.598Z,17.27
2019-05-18T22:30:30.079Z,17.21
2019-05-18T22:32:58.628Z,17.19
2019-05-18T22:35:27.115Z,17.23
2019-05-18T22:37:55.678Z,17.12
2019-05-18T22:40:24.183Z,17.09
2019-05-18T22:42:52.663Z,17.01
2019-05-18T22:45:21.189Z,17.01
2019-05-18T22:47:49.650Z,16.95
2019-05-18T22:50:20.148Z,17.03
2019-05-18T22:52:51.316Z,16.95
2019-05-18T22:55:19.992Z,16.90
2019-05-18T22:57:50.233Z,16.94
2019-05-18T23:00:19.229Z,16.92
2019-05-18T23:02:47.720Z,16.89
2019-05-18T23:05:16.226Z,16.86
2019-05-18T23:07:44.769Z,16.88
2019-05-18T23:10:14.168Z,16.94
2019-05-18T23:12:42.659Z,16.88
2019-05-18T23:15:11.598Z,16.80
2019-05-18T23:17:40.080Z,16.73
2019-05-18T23:20:08.928Z,16.70
2019-05-18T23:22:37.507Z,16.76
2019-05-18T23:25:10.527Z,16.74
2019-05-18T23:27:38.979Z,16.76
2019-05-18T23:30:08.611Z,16.67
2019-05-18T23:32:37.868Z,16.67
2019-05-18T23:35:06.929Z,16.66
2019-05-18T23:37:35.419Z,16.66
2019-05-18T23:40:05.170Z,16.60
2019-05-18T23:42:33.709Z,16.61
2019-05-18T23:45:02.229Z,16.60
2019-05-18T23:47:30.711Z,16.57
2019-05-18T23:49:59.208Z,16.59
2019-05-18T23:52:27.684Z,16.52
2019-05-18T23:54:56.196Z,16.39
2019-05-18T23:57:24.702Z,16.34
2019-05-18T23:59:53.232Z,16.29
